<?xml version="1.0" encoding="UTF-8" standalone="no" ?>
<gpx xmlns="http://www.topografix.com/GPX/1/1" xmlns:xsi="http://www.w3.org/2001/XMLSchema-instance" xsi:schemaLocation="http://www.topografix.com/GPX/1/1 http://www.topografix.com/GPX/1/1/gpx.xsd" version="1.1" creator="VisuGPX - https://www.visugpx.com">
  <metadata>
    <name>Boucle Arrouy Lascours Pouri</name>
  </metadata>
  <trk>
    <name><![CDATA[10918668-Boucle_Arrouy_Lascours_Pouri]]></name>
    <trkseg>
      <trkpt lat="42.90705" lon="0.03768">
        <ele>1428</ele>
        <time>2020-01-22T15:56:38Z</time>
      </trkpt>
      <trkpt lat="42.90901" lon="0.03712">
        <ele>1448</ele>
        <time>2020-01-22T15:59:18Z</time>
      </trkpt>
      <trkpt lat="42.91026" lon="0.03708">
        <ele>1460</ele>
        <time>2020-01-22T16:00:58Z</time>
      </trkpt>
      <trkpt lat="42.91189" lon="0.03957">
        <ele>1534</ele>
        <time>2020-01-22T16:04:14Z</time>
      </trkpt>
      <trkpt lat="42.91284" lon="0.04283">
        <ele>1630</ele>
        <time>2020-01-22T16:07:40Z</time>
      </trkpt>
      <trkpt lat="42.91416" lon="0.04678">
        <ele>1739</ele>
        <time>2020-01-22T16:11:55Z</time>
      </trkpt>
      <trkpt lat="42.91648" lon="0.04686">
        <ele>1778</ele>
        <time>2020-01-22T16:15:00Z</time>
      </trkpt>
      <trkpt lat="42.91837" lon="0.04412">
        <ele>1765</ele>
        <time>2020-01-22T16:18:41Z</time>
      </trkpt>
      <trkpt lat="42.91887" lon="0.04128">
        <ele>1762</ele>
        <time>2020-01-22T16:21:32Z</time>
      </trkpt>
      <trkpt lat="42.92067" lon="0.0399">
        <ele>1909</ele>
        <time>2020-01-22T16:24:18Z</time>
      </trkpt>
      <trkpt lat="42.92239" lon="0.04189">
        <ele>2005</ele>
        <time>2020-01-22T16:27:18Z</time>
      </trkpt>
      <trkpt lat="42.9244" lon="0.04156">
        <ele>2035</ele>
        <time>2020-01-22T16:30:00Z</time>
      </trkpt>
      <trkpt lat="42.92406" lon="0.03903">
        <ele>2080</ele>
        <time>2020-01-22T16:32:31Z</time>
      </trkpt>
      <trkpt lat="42.92528" lon="0.03141">
        <ele>2251</ele>
        <time>2020-01-22T16:40:08Z</time>
      </trkpt>
      <trkpt lat="42.92648" lon="0.03279">
        <ele>2321</ele>
        <time>2020-01-22T16:42:14Z</time>
      </trkpt>
      <trkpt lat="42.92688" lon="0.02995">
        <ele>2386</ele>
        <time>2020-01-22T16:45:04Z</time>
      </trkpt>
      <trkpt lat="42.92692" lon="0.02678">
        <ele>2449</ele>
        <time>2020-01-22T16:48:09Z</time>
      </trkpt>
      <trkpt lat="42.92755" lon="0.02935">
        <ele>2386</ele>
        <time>2020-01-22T16:50:48Z</time>
      </trkpt>
      <trkpt lat="42.93069" lon="0.02935">
        <ele>2210</ele>
        <time>2020-01-22T16:55:00Z</time>
      </trkpt>
      <trkpt lat="42.93465" lon="0.02995">
        <ele>2040</ele>
        <time>2020-01-22T17:00:19Z</time>
      </trkpt>
      <trkpt lat="42.93716" lon="0.03038">
        <ele>1945</ele>
        <time>2020-01-22T17:03:41Z</time>
      </trkpt>
      <trkpt lat="42.9359" lon="0.0351">
        <ele>1969</ele>
        <time>2020-01-22T17:08:36Z</time>
      </trkpt>
      <trkpt lat="42.93565" lon="0.0394">
        <ele>2127</ele>
        <time>2020-01-22T17:12:49Z</time>
      </trkpt>
      <trkpt lat="42.93397" lon="0.0406">
        <ele>2210</ele>
        <time>2020-01-22T17:15:20Z</time>
      </trkpt>
      <trkpt lat="42.93194" lon="0.04171">
        <ele>2310</ele>
        <time>2020-01-22T17:18:16Z</time>
      </trkpt>
      <trkpt lat="42.93147" lon="0.04685">
        <ele>2434</ele>
        <time>2020-01-22T17:23:19Z</time>
      </trkpt>
      <trkpt lat="42.92943" lon="0.05021">
        <ele>2422</ele>
        <time>2020-01-22T17:27:35Z</time>
      </trkpt>
      <trkpt lat="42.92832" lon="0.05303">
        <ele>2356</ele>
        <time>2020-01-22T17:30:43Z</time>
      </trkpt>
      <trkpt lat="42.92994" lon="0.05571">
        <ele>2245</ele>
        <time>2020-01-22T17:34:07Z</time>
      </trkpt>
      <trkpt lat="42.93012" lon="0.05828">
        <ele>2159</ele>
        <time>2020-01-22T17:36:38Z</time>
      </trkpt>
      <trkpt lat="42.92859" lon="0.05967">
        <ele>2161</ele>
        <time>2020-01-22T17:39:05Z</time>
      </trkpt>
      <trkpt lat="42.92704" lon="0.0618">
        <ele>2224</ele>
        <time>2020-01-22T17:42:01Z</time>
      </trkpt>
      <trkpt lat="42.92579" lon="0.06506">
        <ele>2334</ele>
        <time>2020-01-22T17:45:37Z</time>
      </trkpt>
      <trkpt lat="42.92472" lon="0.06806">
        <ele>2386</ele>
        <time>2020-01-22T17:48:52Z</time>
      </trkpt>
      <trkpt lat="42.92269" lon="0.0705">
        <ele>2471</ele>
        <time>2020-01-22T17:52:29Z</time>
      </trkpt>
      <trkpt lat="42.92171" lon="0.06971">
        <ele>2494</ele>
        <time>2020-01-22T17:54:00Z</time>
      </trkpt>
      <trkpt lat="42.92139" lon="0.06815">
        <ele>2528</ele>
        <time>2020-01-22T17:55:35Z</time>
      </trkpt>
      <trkpt lat="42.91963" lon="0.06738">
        <ele>2484</ele>
        <time>2020-01-22T17:58:03Z</time>
      </trkpt>
      <trkpt lat="42.91919" lon="0.06412">
        <ele>2324</ele>
        <time>2020-01-22T18:01:17Z</time>
      </trkpt>
      <trkpt lat="42.91749" lon="0.06017">
        <ele>2174</ele>
        <time>2020-01-22T18:05:46Z</time>
      </trkpt>
      <trkpt lat="42.91529" lon="0.05759">
        <ele>2011</ele>
        <time>2020-01-22T18:09:38Z</time>
      </trkpt>
      <trkpt lat="42.91315" lon="0.05459">
        <ele>1916</ele>
        <time>2020-01-22T18:13:44Z</time>
      </trkpt>
      <trkpt lat="42.91303" lon="0.04824">
        <ele>1795</ele>
        <time>2020-01-22T18:19:56Z</time>
      </trkpt>
      <trkpt lat="42.91301" lon="0.04158">
        <ele>1594</ele>
        <time>2020-01-22T18:26:27Z</time>
      </trkpt>
      <trkpt lat="42.91028" lon="0.03769">
        <ele>1458</ele>
        <time>2020-01-22T18:31:43Z</time>
      </trkpt>
      <trkpt lat="42.90928" lon="0.03701">
        <ele>1452</ele>
        <time>2020-01-22T18:33:12Z</time>
      </trkpt>
      <trkpt lat="42.90687" lon="0.03765">
        <ele>1428</ele>
        <time>2020-01-22T18:36:29Z</time>
      </trkpt>
    </trkseg>
  </trk>
</gpx>